createdAt,value
2022-10-17T00:00:48.984Z,19.13
2022-10-17T00:03:16.253Z,17.05
2022-10-17T00:05:44.823Z,13.57
2022-10-17T00:08:12.855Z,12.02
2022-10-17T00:10:40.558Z,12.32
2022-10-17T00:13:09.944Z,14.02
2022-10-17T00:15:37.248Z,12.57
2022-10-17T00:18:04.444Z,13.75
2022-10-17T00:20:32.920Z,16.77
2022-10-17T00:23:00.615Z,15.77
2022-10-17T00:25:27.797Z,17.45
2022-10-17T00:27:55.220Z,16.90
2022-10-17T00:30:22.423Z,13.93
2022-10-17T00:32:50.874Z,15.52
2022-10-17T00:35:18.385Z,12.60
2022-10-17T00:37:46.471Z,14.43
2022-10-17T00:40:14.767Z,15.10
2022-10-17T00:42:41.835Z,14.13
2022-10-17T00:45:21.115Z,17.60
2022-10-17T00:47:52.151Z,18.23
2022-10-17T00:50:20.356Z,16.38
2022-10-17T00:52:47.896Z,15.15
2022-10-17T00:55:26.264Z,14.15
2022-10-17T00:57:53.689Z,14.15
2022-10-17T01:00:20.876Z,13.98
2022-10-17T01:02:48.777Z,17.15
2022-10-17T01:05:16.480Z,14.70
2022-10-17T01:07:44.819Z,16.90
2022-10-17T01:10:13.624Z,14.80
2022-10-17T01:12:47.008Z,19.30
2022-10-17T01:15:38.008Z,15.20
2022-10-17T01:18:14.377Z,13.80
2022-10-17T01:20:52.898Z,27.13
2022-10-17T01:23:29.386Z,16.67
2022-10-17T01:26:03.106Z,21.65
2022-10-17T01:28:49.399Z,15.88
2022-10-17T01:31:20.694Z,18.50
2022-10-17T01:34:03.480Z,16.92
2022-10-17T01:36:49.661Z,14.43
2022-10-17T01:39:21.729Z,17.17
2022-10-17T01:42:00.606Z,14.43
2022-10-17T01:44:33.495Z,16.25
2022-10-17T01:47:11.748Z,18.80
2022-10-17T01:49:40.969Z,15.25
2022-10-17T01:52:13.666Z,16.50
2022-10-17T01:54:43.409Z,16.20
2022-10-17T01:57:14.475Z,16.77
2022-10-17T01:59:43.100Z,14.32
2022-10-17T02:02:10.745Z,16.08
2022-10-17T02:04:38.207Z,17.50
2022-10-17T02:07:09.529Z,18.35
2022-10-17T02:09:36.630Z,18.58
2022-10-17T02:12:11.077Z,18.85
2022-10-17T02:14:56.907Z,15.68
2022-10-17T02:17:32.014Z,20.33
2022-10-17T02:20:03.420Z,22.95
2022-10-17T02:22:41.612Z,23.58
2022-10-17T02:25:26.986Z,27.73
2022-10-17T02:28:00.025Z,25.05
2022-10-17T02:30:27.223Z,23.35
2022-10-17T02:33:08.273Z,16.42
2022-10-17T02:35:37.569Z,18.67
2022-10-17T02:38:09.156Z,22.38
2022-10-17T02:40:37.803Z,16.55
2022-10-17T02:43:05.179Z,19.15
2022-10-17T02:45:36.027Z,20.55
2022-10-17T02:48:04.726Z,20.20
2022-10-17T02:50:54.940Z,23.88
2022-10-17T02:53:38.696Z,20.25
2022-10-17T02:56:09.590Z,24.05
2022-10-17T02:58:37.149Z,17.48
2022-10-17T03:01:05.507Z,16.55
2022-10-17T03:03:33.910Z,14.45
2022-10-17T03:06:01.106Z,15.68
2022-10-17T03:08:28.378Z,18.65
2022-10-17T03:10:55.553Z,13.10
2022-10-17T03:13:22.706Z,19.40
2022-10-17T03:15:50.085Z,12.55
2022-10-17T03:18:17.482Z,19.23
2022-10-17T03:20:44.771Z,15.05
2022-10-17T03:23:11.909Z,13.38
2022-10-17T03:25:39.268Z,14.73
2022-10-17T03:28:06.536Z,19.45
2022-10-17T03:30:34.128Z,14.40
2022-10-17T03:33:06.547Z,12.60
2022-10-17T03:35:33.876Z,13.40
2022-10-17T03:38:04.272Z,15.32
2022-10-17T03:40:31.453Z,15.68
2022-10-17T03:42:58.668Z,13.02
2022-10-17T03:45:25.794Z,14.00
2022-10-17T03:47:54.090Z,13.45
2022-10-17T03:50:21.430Z,11.98
2022-10-17T03:52:49.324Z,14.77
2022-10-17T03:55:16.595Z,14.13
2022-10-17T03:57:45.587Z,19.05
2022-10-17T04:00:14.455Z,21.70
2022-10-17T04:02:41.694Z,23.17
2022-10-17T04:05:09.100Z,17.08
2022-10-17T04:07:37.669Z,12.60
2022-10-17T04:10:05.449Z,18.75
2022-10-17T04:12:32.697Z,18.92
2022-10-17T04:15:00.007Z,19.20
2022-10-17T04:17:28.160Z,13.27
2022-10-17T04:19:55.286Z,19.60
2022-10-17T04:22:22.675Z,14.82
2022-10-17T04:24:49.750Z,16.40
2022-10-17T04:27:17.131Z,14.73
2022-10-17T04:29:44.474Z,12.50
2022-10-17T04:32:13.568Z,19.38
2022-10-17T04:34:40.672Z,14.07
2022-10-17T04:37:07.914Z,12.65
2022-10-17T04:39:35.048Z,12.02
2022-10-17T04:42:02.303Z,19.23
2022-10-17T04:44:30.997Z,14.23
2022-10-17T04:47:04.687Z,14.07
2022-10-17T04:49:31.969Z,15.30
2022-10-17T04:52:01.509Z,17.58
2022-10-17T04:54:28.730Z,13.57
2022-10-17T04:56:57.897Z,13.10
2022-10-17T04:59:25.053Z,12.63
2022-10-17T05:01:54.182Z,13.40
2022-10-17T05:04:25.359Z,14.55
2022-10-17T05:06:52.598Z,14.50
2022-10-17T05:09:19.934Z,14.10
2022-10-17T05:11:47.331Z,13.38
2022-10-17T05:14:14.658Z,19.92
2022-10-17T05:16:41.811Z,15.07
2022-10-17T05:19:09.495Z,11.57
2022-10-17T05:21:37.426Z,20.27
2022-10-17T05:24:09.488Z,13.40
2022-10-17T05:26:36.714Z,17.33
2022-10-17T05:29:05.334Z,14.25
2022-10-17T05:31:32.806Z,11.10
2022-10-17T05:34:03.974Z,12.57
2022-10-17T05:36:32.363Z,11.73
2022-10-17T05:38:59.630Z,14.60
2022-10-17T05:41:27.078Z,11.55
2022-10-17T05:43:54.562Z,15.85
2022-10-17T05:46:21.793Z,9.98
2022-10-17T05:48:49.005Z,13.90
2022-10-17T05:51:16.107Z,14.52
2022-10-17T05:53:43.430Z,12.07
2022-10-17T05:56:12.474Z,12.40
2022-10-17T05:58:55.076Z,16.38
2022-10-17T06:01:25.511Z,12.85
2022-10-17T06:03:52.774Z,12.60
2022-10-17T06:06:25.966Z,14.82
2022-10-17T06:08:53.178Z,10.02
2022-10-17T06:11:20.431Z,14.30
2022-10-17T06:13:47.806Z,13.27
2022-10-17T06:16:15.126Z,12.52
2022-10-17T06:18:42.236Z,16.75
2022-10-17T06:21:10.780Z,9.55
2022-10-17T06:23:38.132Z,17.38
2022-10-17T06:26:06.383Z,14.82
2022-10-17T06:28:34.121Z,14.85
2022-10-17T06:31:04.627Z,12.68
2022-10-17T06:33:31.929Z,14.38
2022-10-17T06:35:59.201Z,12.60
2022-10-17T06:38:26.615Z,10.77
2022-10-17T06:40:54.329Z,13.60
2022-10-17T06:43:26.919Z,12.82
2022-10-17T06:45:55.147Z,15.85
2022-10-17T06:48:22.474Z,13.98
2022-10-17T06:50:49.808Z,16.23
2022-10-17T06:53:17.184Z,12.85
2022-10-17T06:55:44.551Z,17.55
2022-10-17T06:58:11.870Z,15.40
2022-10-17T07:00:39.084Z,15.25
2022-10-17T07:03:06.319Z,14.02
2022-10-17T07:05:33.695Z,18.27
2022-10-17T07:08:01.061Z,13.73
2022-10-17T07:10:28.473Z,16.80
2022-10-17T07:12:55.777Z,14.50
2022-10-17T07:15:22.854Z,11.77
2022-10-17T07:17:52.042Z,14.55
2022-10-17T07:20:20.423Z,16.52
2022-10-17T07:22:47.505Z,16.27
2022-10-17T07:25:14.628Z,12.93
2022-10-17T07:27:42.049Z,14.23
2022-10-17T07:30:09.649Z,13.00
2022-10-17T07:32:36.862Z,13.80
2022-10-17T07:35:05.166Z,22.08
2022-10-17T07:37:32.827Z,23.80
2022-10-17T07:40:00.247Z,21.80
2022-10-17T07:42:28.629Z,19.63
2022-10-17T07:44:56.235Z,15.82
2022-10-17T07:47:23.466Z,16.50
2022-10-17T07:49:50.945Z,15.60
2022-10-17T07:52:18.442Z,27.95
2022-10-17T07:54:45.875Z,14.55
2022-10-17T07:57:13.017Z,16.80
2022-10-17T07:59:40.237Z,19.55
2022-10-17T08:02:08.208Z,25.65
2022-10-17T08:04:39.191Z,16.80
2022-10-17T08:07:18.571Z,15.98
2022-10-17T08:09:51.162Z,18.33
2022-10-17T08:12:18.965Z,21.60
2022-10-17T08:14:48.416Z,18.25
2022-10-17T08:17:15.779Z,23.15
2022-10-17T08:19:42.917Z,22.88
2022-10-17T08:22:10.197Z,21.40
2022-10-17T08:24:38.456Z,18.10
2022-10-17T08:27:11.416Z,16.40
2022-10-17T08:29:39.436Z,21.55
2022-10-17T08:32:10.184Z,22.70
2022-10-17T08:34:37.721Z,18.42
2022-10-17T08:37:04.919Z,19.55
2022-10-17T08:39:33.342Z,18.58
2022-10-17T08:42:06.616Z,25.42
2022-10-17T08:44:33.837Z,16.88
2022-10-17T08:47:03.831Z,17.05
2022-10-17T08:49:47.035Z,16.05
2022-10-17T08:52:30.795Z,16.73
2022-10-17T08:54:58.039Z,15.73
2022-10-17T08:57:26.433Z,19.95
2022-10-17T08:59:54.722Z,22.52
2022-10-17T09:02:22.994Z,22.02
2022-10-17T09:05:11.132Z,9.35
2022-10-17T09:07:42.563Z,19.20
2022-10-17T09:10:17.906Z,17.05
2022-10-17T09:13:06.907Z,17.10
2022-10-17T09:15:46.320Z,20.38
2022-10-17T09:18:23.190Z,24.45
2022-10-17T09:20:52.679Z,18.45
2022-10-17T09:23:24.678Z,19.80
2022-10-17T09:25:54.458Z,23.50
2022-10-17T09:28:35.594Z,20.85
2022-10-17T09:33:55.074Z,22.80
2022-10-17T09:36:35.529Z,27.85
2022-10-17T09:39:33.049Z,17.20
2022-10-17T09:42:01.402Z,20.30
2022-10-17T09:44:33.899Z,22.25
2022-10-17T09:47:41.220Z,19.45
2022-10-17T09:50:32.128Z,20.38
2022-10-17T09:53:08.551Z,22.40
2022-10-17T09:55:40.938Z,18.40
2022-10-17T09:58:09.451Z,19.80
2022-10-17T10:00:38.527Z,22.00
2022-10-17T10:03:10.499Z,18.50
2022-10-17T10:05:37.795Z,19.80
2022-10-17T10:08:07.837Z,18.77
2022-10-17T10:10:36.226Z,20.10
2022-10-17T10:13:06.509Z,26.35
2022-10-17T10:15:46.904Z,18.45
2022-10-17T10:18:26.633Z,21.03
2022-10-17T10:21:06.530Z,19.05
2022-10-17T10:23:34.398Z,18.40
2022-10-17T10:26:21.032Z,21.48
2022-10-17T10:29:02.599Z,20.02
2022-10-17T10:31:32.165Z,19.75
2022-10-17T10:34:00.386Z,18.88
2022-10-17T10:36:42.690Z,22.63
2022-10-17T10:39:16.936Z,11.15
2022-10-17T10:41:48.767Z,14.30
2022-10-17T10:44:25.764Z,13.93
2022-10-17T10:47:10.010Z,13.80
2022-10-17T10:49:39.259Z,19.67
2022-10-17T10:52:07.369Z,10.77
2022-10-17T10:57:08.550Z,12.77
2022-10-17T10:59:35.685Z,16.63
2022-10-17T11:02:22.768Z,19.80
2022-10-17T11:05:01.197Z,18.15
2022-10-17T11:07:33.580Z,16.40
2022-10-17T11:10:07.118Z,15.25
2022-10-17T11:12:39.756Z,18.20
2022-10-17T11:15:26.990Z,15.98
2022-10-17T11:18:01.861Z,12.20
2022-10-17T11:20:49.818Z,14.02
2022-10-17T11:23:30.038Z,13.82
2022-10-17T11:25:58.694Z,16.00
2022-10-17T11:28:27.909Z,12.57
2022-10-17T11:31:04.528Z,12.20
2022-10-17T11:33:39.604Z,16.92
2022-10-17T11:36:08.986Z,14.35
2022-10-17T11:38:57.317Z,13.30
2022-10-17T11:41:30.650Z,13.45
2022-10-17T11:44:04.374Z,12.57
2022-10-17T11:46:35.972Z,10.07
2022-10-17T11:49:04.383Z,10.55
2022-10-17T11:54:24.950Z,9.13
2022-10-17T11:57:13.957Z,8.93
2022-10-17T11:59:51.182Z,10.43
2022-10-17T12:02:35.040Z,13.35
2022-10-17T12:05:06.993Z,9.13
2022-10-17T12:07:37.252Z,8.50
2022-10-17T12:10:23.383Z,15.38
2022-10-17T12:12:50.677Z,12.32
2022-10-17T12:15:23.874Z,10.70
2022-10-17T12:18:02.548Z,11.32
2022-10-17T12:20:39.596Z,14.30
2022-10-17T12:23:06.748Z,11.13
2022-10-17T12:28:13.262Z,13.27
2022-10-17T12:30:50.605Z,11.50
2022-10-17T12:33:23.841Z,10.63
2022-10-17T12:35:51.541Z,13.65
2022-10-17T12:38:21.598Z,13.02
2022-10-17T12:40:54.381Z,12.38
2022-10-17T12:43:31.394Z,13.32
2022-10-17T12:45:59.207Z,12.07
2022-10-17T12:48:36.925Z,10.63
2022-10-17T12:54:14.855Z,18.17
2022-10-17T12:56:47.645Z,14.05
2022-10-17T12:59:14.709Z,12.35
2022-10-17T13:01:44.411Z,14.40
2022-10-17T13:04:12.032Z,15.30
2022-10-17T13:06:49.838Z,13.98
2022-10-17T13:09:18.020Z,12.50
2022-10-17T13:11:45.306Z,12.65
2022-10-17T13:14:14.730Z,15.57
2022-10-17T13:16:59.104Z,9.50
2022-10-17T13:19:29.677Z,13.27
2022-10-17T13:22:05.337Z,11.43
2022-10-17T13:24:47.035Z,14.52
2022-10-17T13:27:25.423Z,14.57
2022-10-17T13:29:52.685Z,11.38
2022-10-17T13:32:20.061Z,13.93
2022-10-17T13:35:04.982Z,14.45
2022-10-17T13:37:35.154Z,10.50
2022-10-17T13:40:16.238Z,10.98
2022-10-17T13:42:51.707Z,13.32
2022-10-17T13:45:22.769Z,9.32
2022-10-17T13:50:43.171Z,11.13
2022-10-17T13:53:21.334Z,10.75
2022-10-17T13:56:22.824Z,8.50
2022-10-17T13:58:48.345Z,11.48
2022-10-17T14:01:16.386Z,10.95
2022-10-17T14:03:48.554Z,9.07
2022-10-17T14:06:16.279Z,12.65
2022-10-17T14:09:03.485Z,8.68
2022-10-17T14:11:33.673Z,9.05
2022-10-17T14:14:05.328Z,9.13
2022-10-17T14:16:42.258Z,8.27
2022-10-17T14:19:25.673Z,9.88
2022-10-17T14:21:57.458Z,7.82
2022-10-17T14:24:28.289Z,8.85
2022-10-17T14:26:58.880Z,7.57
2022-10-17T14:29:27.662Z,9.05
2022-10-17T14:32:03.659Z,5.47
2022-10-17T14:34:34.142Z,11.35
2022-10-17T14:37:02.121Z,8.85
2022-10-17T14:39:30.057Z,10.60
2022-10-17T14:42:02.012Z,8.90
2022-10-17T14:44:33.597Z,8.43
2022-10-17T14:47:18.317Z,8.50
2022-10-17T14:50:03.966Z,10.90
2022-10-17T14:52:33.579Z,10.05
2022-10-17T14:55:16.215Z,8.55
2022-10-17T14:57:46.882Z,9.20
2022-10-17T15:00:15.139Z,10.35
2022-10-17T15:02:43.700Z,8.82
2022-10-17T15:05:13.408Z,11.40
2022-10-17T15:07:41.459Z,9.95
2022-10-17T15:10:21.740Z,11.88
2022-10-17T15:12:58.898Z,9.68
2022-10-17T15:15:28.051Z,7.22
2022-10-17T15:17:56.482Z,8.07
2022-10-17T15:20:27.202Z,8.70
2022-10-17T15:22:55.869Z,6.97
2022-10-17T15:25:28.727Z,6.93
2022-10-17T15:28:00.186Z,7.45
2022-10-17T15:30:33.075Z,8.55
2022-10-17T15:33:01.539Z,10.93
2022-10-17T15:35:33.783Z,8.63
2022-10-17T15:38:02.174Z,7.85
2022-10-17T15:40:31.358Z,5.97
2022-10-17T15:42:58.504Z,7.03
2022-10-17T15:45:26.941Z,12.55
2022-10-17T15:47:56.655Z,13.25
2022-10-17T15:50:24.939Z,12.07
2022-10-17T15:52:53.070Z,9.60
2022-10-17T15:55:21.339Z,11.65
2022-10-17T15:57:49.601Z,18.45
2022-10-17T16:00:19.733Z,11.95
2022-10-17T16:02:50.724Z,9.93
2022-10-17T16:07:48.388Z,10.93
2022-10-17T16:10:18.623Z,16.45
2022-10-17T16:12:46.825Z,14.27
2022-10-17T16:15:15.421Z,10.77
2022-10-17T16:17:43.869Z,13.40
2022-10-17T16:20:32.162Z,13.40
2022-10-17T16:23:02.481Z,14.98
2022-10-17T16:25:38.538Z,11.15
2022-10-17T16:28:08.452Z,19.67
2022-10-17T16:30:41.449Z,14.98
2022-10-17T16:33:10.678Z,13.75
2022-10-17T16:35:39.939Z,15.20
2022-10-17T16:38:09.329Z,16.92
2022-10-17T16:40:40.307Z,11.63
2022-10-17T16:43:13.452Z,12.68
2022-10-17T16:45:41.649Z,12.80
2022-10-17T16:48:10.238Z,15.00
2022-10-17T16:50:41.583Z,14.15
2022-10-17T16:53:08.921Z,14.52
2022-10-17T16:55:37.289Z,15.40
2022-10-17T16:58:05.364Z,16.17
2022-10-17T17:00:33.096Z,16.10
2022-10-17T17:03:01.713Z,24.95
2022-10-17T17:05:29.278Z,14.13
2022-10-17T17:07:59.588Z,13.05
2022-10-17T17:10:32.825Z,19.48
2022-10-17T17:13:05.768Z,20.90
2022-10-17T17:15:36.447Z,21.50
2022-10-17T17:18:10.910Z,20.27
2022-10-17T17:20:39.503Z,22.88
2022-10-17T17:23:06.871Z,19.13
2022-10-17T17:25:39.538Z,25.38
2022-10-17T17:28:07.718Z,19.98
2022-10-17T17:30:36.398Z,20.90
2022-10-17T17:33:04.966Z,18.10
2022-10-17T17:35:32.527Z,16.10
2022-10-17T17:38:03.170Z,19.83
2022-10-17T17:40:30.718Z,17.98
2022-10-17T17:42:58.226Z,20.67
2022-10-17T17:45:27.777Z,16.75
2022-10-17T17:47:56.080Z,14.68
2022-10-17T17:50:23.713Z,15.98
2022-10-17T17:52:52.196Z,22.27
2022-10-17T17:55:19.871Z,27.70
2022-10-17T17:57:47.215Z,18.83
2022-10-17T18:00:15.218Z,19.85
2022-10-17T18:02:44.573Z,17.65
2022-10-17T18:05:12.130Z,16.60
2022-10-17T18:07:39.482Z,16.40
2022-10-17T18:12:42.998Z,15.57
2022-10-17T18:15:10.361Z,15.05
2022-10-17T18:17:39.358Z,23.08
2022-10-17T18:20:09.252Z,18.20
2022-10-17T18:22:36.929Z,34.15
2022-10-17T18:25:06.212Z,27.30
2022-10-17T18:27:35.935Z,28.52
2022-10-17T18:30:03.527Z,37.38
2022-10-17T18:32:32.279Z,27.45
2022-10-17T18:35:01.155Z,24.50
2022-10-17T18:37:29.663Z,28.15
2022-10-17T18:39:57.721Z,30.35
2022-10-17T18:42:25.067Z,29.33
2022-10-17T18:44:52.423Z,31.05
2022-10-17T18:47:19.971Z,26.15
2022-10-17T18:49:48.461Z,29.10
2022-10-17T18:52:15.820Z,27.83
2022-10-17T18:54:43.162Z,28.58
2022-10-17T18:57:10.815Z,29.73
2022-10-17T18:59:38.305Z,24.20
2022-10-17T19:02:07.589Z,34.65
2022-10-17T19:04:36.286Z,28.92
2022-10-17T19:07:03.711Z,27.73
2022-10-17T19:09:32.004Z,29.00
2022-10-17T19:12:00.462Z,34.65
2022-10-17T19:14:32.937Z,30.55
2022-10-17T19:17:02.028Z,29.55
2022-10-17T19:19:29.617Z,29.65
2022-10-17T19:21:58.904Z,27.25
2022-10-17T19:24:26.981Z,27.85
2022-10-17T19:26:55.454Z,25.50
2022-10-17T19:29:25.758Z,32.22
2022-10-17T19:31:53.439Z,30.57
2022-10-17T19:34:31.946Z,34.17
2022-10-17T19:36:59.414Z,30.55
2022-10-17T19:39:27.564Z,32.47
2022-10-17T19:41:56.253Z,39.55
2022-10-17T19:44:26.191Z,31.40
2022-10-17T19:46:57.237Z,26.55
2022-10-17T19:49:25.843Z,31.63
2022-10-17T19:51:53.352Z,35.63
2022-10-17T19:54:20.795Z,36.22
2022-10-17T19:56:48.664Z,31.42
2022-10-17T19:59:16.904Z,35.53
2022-10-17T20:01:44.752Z,30.77
2022-10-17T20:04:12.772Z,31.17
2022-10-17T20:06:43.603Z,35.03
2022-10-17T20:09:15.720Z,32.05
2022-10-17T20:11:45.166Z,27.08
2022-10-17T20:14:15.593Z,36.45
2022-10-17T20:16:45.717Z,38.28
2022-10-17T20:19:13.804Z,35.13
2022-10-17T20:21:41.458Z,31.58
2022-10-17T20:24:09.952Z,34.35
2022-10-17T20:26:39.594Z,32.55
2022-10-17T20:29:11.335Z,30.13
2022-10-17T20:31:41.831Z,37.50
2022-10-17T20:34:11.035Z,31.67
2022-10-17T20:36:39.485Z,35.58
2022-10-17T20:39:07.353Z,26.88
2022-10-17T20:41:36.872Z,34.47
2022-10-17T20:44:04.826Z,46.95
2022-10-17T20:46:44.795Z,30.08
2022-10-17T20:49:24.117Z,29.90
2022-10-17T20:51:51.571Z,27.92
2022-10-17T20:54:19.333Z,40.58
2022-10-17T20:56:46.645Z,36.63
2022-10-17T20:59:17.495Z,36.70
2022-10-17T21:01:57.310Z,31.55
2022-10-17T21:04:45.253Z,35.90
2022-10-17T21:07:15.774Z,34.35
2022-10-17T21:09:42.996Z,34.10
2022-10-17T21:12:13.195Z,37.67
2022-10-17T21:14:51.306Z,32.15
2022-10-17T21:17:19.549Z,30.65
2022-10-17T21:19:48.981Z,29.52
2022-10-17T21:22:16.143Z,31.65
2022-10-17T21:24:43.963Z,29.98
2022-10-17T21:27:15.210Z,38.15
2022-10-17T21:29:43.479Z,37.60
2022-10-17T21:32:20.626Z,38.83
2022-10-17T21:34:58.530Z,46.08
2022-10-17T21:37:26.657Z,43.78
2022-10-17T21:39:55.941Z,40.30
2022-10-17T21:42:26.353Z,35.13
2022-10-17T21:44:54.579Z,33.30
2022-10-17T21:47:23.287Z,34.55
2022-10-17T21:49:52.743Z,32.22
2022-10-17T21:52:19.808Z,44.15
2022-10-17T21:54:47.184Z,34.55
2022-10-17T21:59:44.605Z,34.85
2022-10-17T22:02:17.698Z,41.88
2022-10-17T22:04:44.985Z,35.45
2022-10-17T22:07:13.010Z,36.97
2022-10-17T22:09:40.112Z,39.95
2022-10-17T22:12:07.272Z,46.55
2022-10-17T22:14:35.494Z,38.65
2022-10-17T22:17:03.824Z,45.90
2022-10-17T22:19:32.183Z,38.40
2022-10-17T22:22:00.331Z,40.25
2022-10-17T22:24:28.695Z,43.05
2022-10-17T22:26:55.787Z,40.40
2022-10-17T22:29:22.883Z,40.75
2022-10-17T22:31:50.093Z,37.00
2022-10-17T22:34:20.507Z,48.90
2022-10-17T22:36:48.849Z,41.97
2022-10-17T22:39:18.103Z,38.33
2022-10-17T22:41:45.524Z,33.65
2022-10-17T22:44:12.625Z,38.17
2022-10-17T22:46:40.030Z,41.67
2022-10-17T22:49:07.181Z,52.63
2022-10-17T22:51:34.536Z,35.50
2022-10-17T22:54:02.784Z,59.78
2022-10-17T22:56:29.939Z,40.15
2022-10-17T22:58:57.219Z,42.45
2022-10-17T23:01:25.297Z,51.42
2022-10-17T23:03:53.247Z,53.60
2022-10-17T23:06:22.005Z,52.50
2022-10-17T23:08:51.334Z,50.30
2022-10-17T23:11:21.044Z,49.40
2022-10-17T23:13:48.184Z,46.63
2022-10-17T23:16:16.621Z,39.03
2022-10-17T23:18:44.218Z,53.05
2022-10-17T23:21:12.798Z,80.07
2022-10-17T23:23:40.089Z,55.90
2022-10-17T23:26:08.631Z,55.47
2022-10-17T23:28:36.114Z,40.10
2022-10-17T23:31:10.860Z,43.30
2022-10-17T23:33:37.987Z,47.40
2022-10-17T23:36:05.604Z,50.17
2022-10-17T23:38:32.690Z,37.00
2022-10-17T23:41:00.056Z,44.08
2022-10-17T23:43:27.545Z,40.88
2022-10-17T23:45:54.685Z,38.53
2022-10-17T23:48:22.852Z,39.00
2022-10-17T23:50:50.120Z,44.55
2022-10-17T23:53:20.442Z,43.33
2022-10-17T23:55:47.828Z,33.22
2022-10-17T23:58:15.453Z,42.63
